sensor_id;sensor_type;location;lat;lon;timestamp;pressure;altitude;pressure_sealevel;temperature;humidity
11077;BME280;5591;42.626;23.380;2023-04-06T00:00:13;93902.22;;;1.56;100.00
11077;BME280;5591;42.626;23.380;2023-04-06T00:02:41;93885.09;;;1.55;100.00
11077;BME280;5591;42.626;23.380;2023-04-06T00:05:08;93899.66;;;1.47;100.00
11077;BME280;5591;42.626;23.380;2023-04-06T00:07:36;93896.28;;;1.46;100.00
11077;BME280;5591;42.626;23.380;2023-04-06T00:10:03;93884.06;;;1.39;100.00
11077;BME280;5591;42.626;23.380;2023-04-06T00:12:30;93889.16;;;1.21;100.00
11077;BME280;5591;42.626;23.380;2023-04-06T00:14:57;93887.09;;;1.34;100.00
11077;BME280;5591;42.626;23.380;2023-04-06T00:17:24;93891.00;;;1.38;100.00
11077;BME280;5591;42.626;23.380;2023-04-06T00:19:51;93885.66;;;1.49;100.00
11077;BME280;5591;42.626;23.380;2023-04-06T00:22:18;93886.66;;;1.66;100.00
11077;BME280;5591;42.626;23.380;2023-04-06T00:24:46;93889.25;;;1.66;100.00
11077;BME280;5591;42.626;23.380;2023-04-06T00:27:13;93878.81;;;1.21;100.00
11077;BME280;5591;42.626;23.380;2023-04-06T00:29:40;93877.31;;;1.28;100.00
11077;BME280;5591;42.626;23.380;2023-04-06T00:32:07;93874.66;;;1.47;100.00
11077;BME280;5591;42.626;23.380;2023-04-06T00:34:34;93875.97;;;1.51;100.00
11077;BME280;5591;42.626;23.380;2023-04-06T00:37:01;93876.19;;;1.67;100.00
11077;BME280;5591;42.626;23.380;2023-04-06T00:39:28;93881.34;;;1.67;100.00
11077;BME280;5591;42.626;23.380;2023-04-06T00:41:56;93872.06;;;1.47;100.00
11077;BME280;5591;42.626;23.380;2023-04-06T00:44:23;93855.13;;;1.26;100.00
11077;BME280;5591;42.626;23.380;2023-04-06T00:46:50;93859.75;;;1.59;100.00
11077;BME280;5591;42.626;23.380;2023-04-06T00:49:17;93866.00;;;1.39;100.00
11077;BME280;5591;42.626;23.380;2023-04-06T00:51:44;93868.25;;;1.69;100.00
11077;BME280;5591;42.626;23.380;2023-04-06T00:54:11;93872.19;;;1.46;100.00
11077;BME280;5591;42.626;23.380;2023-04-06T00:56:38;93851.41;;;1.11;100.00
11077;BME280;5591;42.626;23.380;2023-04-06T00:59:06;93873.81;;;1.47;100.00
11077;BME280;5591;42.626;23.380;2023-04-06T01:01:33;93867.31;;;1.70;100.00
11077;BME280;5591;42.626;23.380;2023-04-06T01:04:01;93869.50;;;1.38;100.00
11077;BME280;5591;42.626;23.380;2023-04-06T01:06:28;93878.38;;;1.35;100.00
11077;BME280;5591;42.626;23.380;2023-04-06T01:08:55;93861.56;;;1.49;100.00
11077;BME280;5591;42.626;23.380;2023-04-06T01:11:22;93870.63;;;1.26;100.00
11077;BME280;5591;42.626;23.380;2023-04-06T01:13:49;93858.56;;;1.26;100.00
11077;BME280;5591;42.626;23.380;2023-04-06T01:16:17;93865.41;;;1.08;100.00
11077;BME280;5591;42.626;23.380;2023-04-06T01:18:44;93857.09;;;1.41;100.00
11077;BME280;5591;42.626;23.380;2023-04-06T01:21:11;93847.31;;;1.45;100.00
11077;BME280;5591;42.626;23.380;2023-04-06T01:23:43;93843.81;;;1.36;100.00
11077;BME280;5591;42.626;23.380;2023-04-06T01:26:11;93843.81;;;1.36;100.00
11077;BME280;5591;42.626;23.380;2023-04-06T01:28:38;93828.81;;;1.13;100.00
11077;BME280;5591;42.626;23.380;2023-04-06T01:31:06;93841.66;;;1.32;100.00
11077;BME280;5591;42.626;23.380;2023-04-06T01:33:33;93847.16;;;1.19;100.00
11077;BME280;5591;42.626;23.380;2023-04-06T01:36:00;93834.47;;;1.26;100.00
11077;BME280;5591;42.626;23.380;2023-04-06T01:38:27;93850.81;;;1.17;100.00
11077;BME280;5591;42.626;23.380;2023-04-06T01:40:56;93846.22;;;1.11;100.00
11077;BME280;5591;42.626;23.380;2023-04-06T01:43:23;93838.31;;;1.22;100.00
11077;BME280;5591;42.626;23.380;2023-04-06T01:45:49;93831.28;;;1.14;100.00
11077;BME280;5591;42.626;23.380;2023-04-06T01:48:16;93829.75;;;1.48;100.00
11077;BME280;5591;42.626;23.380;2023-04-06T01:50:43;93831.53;;;1.11;100.00
11077;BME280;5591;42.626;23.380;2023-04-06T01:53:10;93834.22;;;1.29;100.00
11077;BME280;5591;42.626;23.380;2023-04-06T01:55:37;93847.25;;;1.27;100.00
11077;BME280;5591;42.626;23.380;2023-04-06T01:58:05;93831.09;;;1.16;100.00
11077;BME280;5591;42.626;23.380;2023-04-06T02:00:32;93830.22;;;1.34;100.00
11077;BME280;5591;42.626;23.380;2023-04-06T02:02:59;93828.53;;;1.16;100.00
11077;BME280;5591;42.626;23.380;2023-04-06T02:05:26;93816.41;;;1.70;100.00
11077;BME280;5591;42.626;23.380;2023-04-06T02:07:53;93827.97;;;1.49;100.00
11077;BME280;5591;42.626;23.380;2023-04-06T02:10:20;93817.28;;;1.61;100.00
11077;BME280;5591;42.626;23.380;2023-04-06T02:12:47;93823.97;;;1.54;100.00
11077;BME280;5591;42.626;23.380;2023-04-06T02:15:15;93822.78;;;1.49;100.00
11077;BME280;5591;42.626;23.380;2023-04-06T02:17:42;93834.09;;;1.48;100.00
11077;BME280;5591;42.626;23.380;2023-04-06T02:20:09;93828.97;;;1.38;100.00
11077;BME280;5591;42.626;23.380;2023-04-06T02:22:36;93815.00;;;1.58;100.00
11077;BME280;5591;42.626;23.380;2023-04-06T02:25:04;93818.88;;;1.72;100.00
11077;BME280;5591;42.626;23.380;2023-04-06T02:27:31;93817.50;;;1.68;100.00
11077;BME280;5591;42.626;23.380;2023-04-06T02:29:58;93817.97;;;1.81;100.00
11077;BME280;5591;42.626;23.380;2023-04-06T02:32:26;93824.50;;;1.85;100.00
11077;BME280;5591;42.626;23.380;2023-04-06T02:34:53;93854.66;;;1.94;100.00
11077;BME280;5591;42.626;23.380;2023-04-06T02:37:20;93821.44;;;1.72;100.00
11077;BME280;5591;42.626;23.380;2023-04-06T02:39:47;93817.69;;;1.84;100.00
11077;BME280;5591;42.626;23.380;2023-04-06T02:42:14;93815.03;;;1.93;100.00
11077;BME280;5591;42.626;23.380;2023-04-06T02:44:41;93810.47;;;2.05;100.00
11077;BME280;5591;42.626;23.380;2023-04-06T02:47:08;93823.97;;;1.54;100.00
11077;BME280;5591;42.626;23.380;2023-04-06T02:49:37;93811.91;;;1.90;100.00
11077;BME280;5591;42.626;23.380;2023-04-06T02:52:04;93826.09;;;1.68;100.00
11077;BME280;5591;42.626;23.380;2023-04-06T02:54:31;93811.66;;;1.48;100.00
11077;BME280;5591;42.626;23.380;2023-04-06T02:56:58;93812.28;;;1.60;100.00
11077;BME280;5591;42.626;23.380;2023-04-06T02:59:24;93821.69;;;1.51;100.00
11077;BME280;5591;42.626;23.380;2023-04-06T03:01:51;93808.34;;;1.56;100.00
11077;BME280;5591;42.626;23.380;2023-04-06T03:04:18;93794.19;;;1.33;100.00
11077;BME280;5591;42.626;23.380;2023-04-06T03:06:48;93814.38;;;1.47;100.00
11077;BME280;5591;42.626;23.380;2023-04-06T03:09:15;93810.59;;;1.68;100.00
11077;BME280;5591;42.626;23.380;2023-04-06T03:11:42;93806.28;;;1.59;100.00
11077;BME280;5591;42.626;23.380;2023-04-06T03:14:09;93804.66;;;1.76;100.00
11077;BME280;5591;42.626;23.380;2023-04-06T03:16:35;93801.34;;;1.66;100.00
11077;BME280;5591;42.626;23.380;2023-04-06T03:19:02;93805.19;;;1.79;100.00
11077;BME280;5591;42.626;23.380;2023-04-06T03:21:29;93816.47;;;1.61;100.00
11077;BME280;5591;42.626;23.380;2023-04-06T03:23:57;93789.56;;;1.36;100.00
11077;BME280;5591;42.626;23.380;2023-04-06T03:26:24;93816.09;;;1.56;100.00
11077;BME280;5591;42.626;23.380;2023-04-06T03:28:51;93811.06;;;1.54;100.00
11077;BME280;5591;42.626;23.380;2023-04-06T03:31:18;93816.13;;;1.73;100.00
11077;BME280;5591;42.626;23.380;2023-04-06T03:33:45;93807.16;;;1.50;100.00
11077;BME280;5591;42.626;23.380;2023-04-06T03:36:11;93806.28;;;1.59;100.00
11077;BME280;5591;42.626;23.380;2023-04-06T03:38:38;93811.69;;;1.66;100.00
11077;BME280;5591;42.626;23.380;2023-04-06T03:41:06;93801.44;;;1.74;100.00
11077;BME280;5591;42.626;23.380;2023-04-06T03:43:33;93818.44;;;1.49;100.00
11077;BME280;5591;42.626;23.380;2023-04-06T03:46:00;93805.31;;;1.60;100.00
11077;BME280;5591;42.626;23.380;2023-04-06T03:48:27;93809.47;;;1.71;100.00
11077;BME280;5591;42.626;23.380;2023-04-06T03:50:54;93816.34;;;1.80;100.00
11077;BME280;5591;42.626;23.380;2023-04-06T03:53:21;93815.25;;;2.00;100.00
11077;BME280;5591;42.626;23.380;2023-04-06T03:55:47;93815.31;;;1.73;100.00
11077;BME280;5591;42.626;23.380;2023-04-06T03:58:16;93826.97;;;1.59;100.00
11077;BME280;5591;42.626;23.380;2023-04-06T04:00:43;93800.03;;;1.79;100.00
11077;BME280;5591;42.626;23.380;2023-04-06T04:03:09;93814.69;;;1.61;100.00
11077;BME280;5591;42.626;23.380;2023-04-06T04:05:36;93809.44;;;1.53;100.00
11077;BME280;5591;42.626;23.380;2023-04-06T04:08:03;93808.34;;;1.56;100.00
11077;BME280;5591;42.626;23.380;2023-04-06T04:10:30;93807.56;;;1.90;100.00
11077;BME280;5591;42.626;23.380;2023-04-06T04:12:57;93804.66;;;1.76;100.00
11077;BME280;5591;42.626;23.380;2023-04-06T04:15:25;93810.78;;;1.57;100.00
11077;BME280;5591;42.626;23.380;2023-04-06T04:17:52;93802.91;;;1.94;100.00
11077;BME280;5591;42.626;23.380;2023-04-06T04:20:19;93807.19;;;1.85;100.00
11077;BME280;5591;42.626;23.380;2023-04-06T04:22:46;93803.72;;;1.94;100.00
11077;BME280;5591;42.626;23.380;2023-04-06T04:25:13;93806.53;;;1.83;100.00
11077;BME280;5591;42.626;23.380;2023-04-06T04:27:40;93822.41;;;1.71;100.00
11077;BME280;5591;42.626;23.380;2023-04-06T04:30:08;93811.78;;;1.74;100.00
11077;BME280;5591;42.626;23.380;2023-04-06T04:32:36;93824.50;;;2.02;100.00
11077;BME280;5591;42.626;23.380;2023-04-06T04:35:04;93824.72;;;1.91;100.00
11077;BME280;5591;42.626;23.380;2023-04-06T04:37:31;93829.31;;;2.15;100.00
11077;BME280;5591;42.626;23.380;2023-04-06T04:39:57;93810.22;;;2.16;100.00
11077;BME280;5591;42.626;23.380;2023-04-06T04:42:24;93811.13;;;2.07;100.00
11077;BME280;5591;42.626;23.380;2023-04-06T04:44:51;93820.59;;;2.16;100.00
11077;BME280;5591;42.626;23.380;2023-04-06T04:47:18;93840.53;;;2.06;100.00
11077;BME280;5591;42.626;23.380;2023-04-06T04:49:47;93817.03;;;2.34;100.00
11077;BME280;5591;42.626;23.380;2023-04-06T04:52:13;93821.34;;;2.08;100.00
11077;BME280;5591;42.626;23.380;2023-04-06T04:54:40;93811.78;;;2.09;100.00
11077;BME280;5591;42.626;23.380;2023-04-06T04:57:08;93798.53;;;2.12;100.00
11077;BME280;5591;42.626;23.380;2023-04-06T04:59:35;93817.38;;;2.22;100.00
11077;BME280;5591;42.626;23.380;2023-04-06T05:02:01;93823.38;;;2.39;100.00
11077;BME280;5591;42.626;23.380;2023-04-06T05:04:28;93828.03;;;2.19;100.00
11077;BME280;5591;42.626;23.380;2023-04-06T05:07:04;93737.88;;;1.89;100.00
11077;BME280;5591;42.626;23.380;2023-04-06T05:09:31;93801.81;;;2.14;100.00
11077;BME280;5591;42.626;23.380;2023-04-06T05:11:58;93823.78;;;2.52;100.00
11077;BME280;5591;42.626;23.380;2023-04-06T05:14:25;93817.88;;;2.85;100.00
11077;BME280;5591;42.626;23.380;2023-04-06T05:16:53;93818.56;;;2.70;100.00
11077;BME280;5591;42.626;23.380;2023-04-06T05:19:20;93815.00;;;2.71;100.00
11077;BME280;5591;42.626;23.380;2023-04-06T05:21:47;93812.25;;;2.47;100.00
11077;BME280;5591;42.626;23.380;2023-04-06T05:24:16;93814.53;;;2.50;100.00
11077;BME280;5591;42.626;23.380;2023-04-06T05:26:42;93818.03;;;2.58;100.00
11077;BME280;5591;42.626;23.380;2023-04-06T05:29:10;93821.09;;;2.37;100.00
11077;BME280;5591;42.626;23.380;2023-04-06T05:31:37;93815.91;;;2.37;100.00
11077;BME280;5591;42.626;23.380;2023-04-06T05:34:04;93821.88;;;2.37;100.00
11077;BME280;5591;42.626;23.380;2023-04-06T05:36:31;93789.53;;;2.16;100.00
11077;BME280;5591;42.626;23.380;2023-04-06T05:38:58;93792.13;;;2.16;100.00
11077;BME280;5591;42.626;23.380;2023-04-06T05:41:26;93809.19;;;2.94;100.00
11077;BME280;5591;42.626;23.380;2023-04-06T05:43:53;93820.09;;;2.55;100.00
11077;BME280;5591;42.626;23.380;2023-04-06T05:46:20;93827.88;;;2.38;100.00
11077;BME280;5591;42.626;23.380;2023-04-06T05:48:47;93816.22;;;2.59;100.00
11077;BME280;5591;42.626;23.380;2023-04-06T05:51:14;93811.47;;;2.46;100.00
11077;BME280;5591;42.626;23.380;2023-04-06T05:53:41;93812.22;;;2.64;100.00
11077;BME280;5591;42.626;23.380;2023-04-06T05:56:08;93819.81;;;2.83;100.00
11077;BME280;5591;42.626;23.380;2023-04-06T05:58:36;93805.78;;;2.94;100.00
11077;BME280;5591;42.626;23.380;2023-04-06T06:01:03;93800.94;;;2.99;100.00
11077;BME280;5591;42.626;23.380;2023-04-06T06:03:31;93810.47;;;2.65;100.00
11077;BME280;5591;42.626;23.380;2023-04-06T06:06:01;93713.38;;;2.43;100.00
11077;BME280;5591;42.626;23.380;2023-04-06T06:08:28;93799.97;;;3.00;100.00
11077;BME280;5591;42.626;23.380;2023-04-06T06:10:55;93801.78;;;2.99;100.00
11077;BME280;5591;42.626;23.380;2023-04-06T06:13:23;93807.75;;;2.74;100.00
11077;BME280;5591;42.626;23.380;2023-04-06T06:15:51;93804.50;;;2.72;100.00
11077;BME280;5591;42.626;23.380;2023-04-06T06:18:18;93806.97;;;3.07;100.00
11077;BME280;5591;42.626;23.380;2023-04-06T06:20:45;93803.59;;;3.07;100.00
11077;BME280;5591;42.626;23.380;2023-04-06T06:23:12;93795.81;;;3.07;100.00
11077;BME280;5591;42.626;23.380;2023-04-06T06:25:39;93806.97;;;3.07;100.00
11077;BME280;5591;42.626;23.380;2023-04-06T06:28:06;93792.13;;;3.09;100.00
11077;BME280;5591;42.626;23.380;2023-04-06T06:30:33;93797.25;;;2.50;100.00
11077;BME280;5591;42.626;23.380;2023-04-06T06:33:01;93795.31;;;3.03;100.00
11077;BME280;5591;42.626;23.380;2023-04-06T06:35:28;93792.81;;;3.19;100.00
11077;BME280;5591;42.626;23.380;2023-04-06T06:37:55;93800.91;;;3.24;100.00
11077;BME280;5591;42.626;23.380;2023-04-06T06:40:22;93788.69;;;3.09;100.00
11077;BME280;5591;42.626;23.380;2023-04-06T06:42:51;93800.63;;;2.94;100.00
11077;BME280;5591;42.626;23.380;2023-04-06T06:45:18;93792.81;;;3.27;100.00
11077;BME280;5591;42.626;23.380;2023-04-06T06:47:45;93787.69;;;3.35;100.00
11077;BME280;5591;42.626;23.380;2023-04-06T06:50:14;93799.09;;;3.58;100.00
11077;BME280;5591;42.626;23.380;2023-04-06T06:52:41;93792.03;;;3.76;100.00
11077;BME280;5591;42.626;23.380;2023-04-06T06:55:09;93796.78;;;3.97;100.00
11077;BME280;5591;42.626;23.380;2023-04-06T06:57:36;93796.47;;;4.08;100.00
11077;BME280;5591;42.626;23.380;2023-04-06T07:00:04;93809.63;;;4.22;100.00
11077;BME280;5591;42.626;23.380;2023-04-06T07:02:34;93791.28;;;4.16;100.00
11077;BME280;5591;42.626;23.380;2023-04-06T07:05:01;93783.78;;;3.97;100.00
11077;BME280;5591;42.626;23.380;2023-04-06T07:07:29;93783.31;;;3.85;100.00
11077;BME280;5591;42.626;23.380;2023-04-06T07:09:56;93784.75;;;3.88;100.00
11077;BME280;5591;42.626;23.380;2023-04-06T07:12:23;93779.44;;;4.21;100.00
11077;BME280;5591;42.626;23.380;2023-04-06T07:14:50;93794.56;;;4.66;100.00
11077;BME280;5591;42.626;23.380;2023-04-06T07:17:17;93778.13;;;4.65;100.00
11077;BME280;5591;42.626;23.380;2023-04-06T07:19:44;93794.50;;;4.10;100.00
11077;BME280;5591;42.626;23.380;2023-04-06T07:22:11;93803.59;;;3.98;100.00
11077;BME280;5591;42.626;23.380;2023-04-06T07:24:40;93792.44;;;4.45;100.00
11077;BME280;5591;42.626;23.380;2023-04-06T07:27:06;93796.28;;;4.01;100.00
11077;BME280;5591;42.626;23.380;2023-04-06T07:29:33;93785.34;;;3.66;100.00
11077;BME280;5591;42.626;23.380;2023-04-06T07:32:00;93789.44;;;3.76;100.00
11077;BME280;5591;42.626;23.380;2023-04-06T07:34:27;93786.59;;;4.19;100.00
11077;BME280;5591;42.626;23.380;2023-04-06T07:36:54;93775.06;;;4.14;100.00
11077;BME280;5591;42.626;23.380;2023-04-06T07:39:22;93786.56;;;4.11;100.00
11077;BME280;5591;42.626;23.380;2023-04-06T07:41:50;93787.25;;;4.29;100.00
11077;BME280;5591;42.626;23.380;2023-04-06T07:44:17;93788.88;;;4.30;100.00
11077;BME280;5591;42.626;23.380;2023-04-06T07:46:44;93790.50;;;4.55;99.55
11077;BME280;5591;42.626;23.380;2023-04-06T07:49:10;93806.06;;;4.23;100.00
11077;BME280;5591;42.626;23.380;2023-04-06T07:51:38;93778.94;;;4.18;100.00
11077;BME280;5591;42.626;23.380;2023-04-06T07:54:05;93788.03;;;4.30;100.00
11077;BME280;5591;42.626;23.380;2023-04-06T07:56:32;93780.44;;;4.28;100.00
11077;BME280;5591;42.626;23.380;2023-04-06T07:59:00;93777.53;;;4.47;100.00
11077;BME280;5591;42.626;23.380;2023-04-06T08:01:28;93766.63;;;4.04;100.00
11077;BME280;5591;42.626;23.380;2023-04-06T08:03:55;93777.19;;;4.50;100.00
11077;BME280;5591;42.626;23.380;2023-04-06T08:06:22;93783.38;;;4.49;100.00
11077;BME280;5591;42.626;23.380;2023-04-06T08:08:49;93780.22;;;3.90;100.00
11077;BME280;5591;42.626;23.380;2023-04-06T08:11:16;93777.31;;;4.09;100.00
11077;BME280;5591;42.626;23.380;2023-04-06T08:13:42;93778.47;;;4.70;100.00
11077;BME280;5591;42.626;23.380;2023-04-06T08:16:11;93770.28;;;5.05;100.00
11077;BME280;5591;42.626;23.380;2023-04-06T08:18:38;93777.31;;;4.72;100.00
11077;BME280;5591;42.626;23.380;2023-04-06T08:21:05;93781.31;;;4.99;100.00
11077;BME280;5591;42.626;23.380;2023-04-06T08:23:32;93775.88;;;4.70;100.00
11077;BME280;5591;42.626;23.380;2023-04-06T08:25:59;93782.44;;;5.12;99.83
11077;BME280;5591;42.626;23.380;2023-04-06T08:28:26;93792.78;;;4.58;96.53
11077;BME280;5591;42.626;23.380;2023-04-06T08:30:52;93779.47;;;5.31;91.89
11077;BME280;5591;42.626;23.380;2023-04-06T08:33:21;93793.25;;;4.78;97.09
11077;BME280;5591;42.626;23.380;2023-04-06T08:35:48;93801.03;;;4.85;97.13
11077;BME280;5591;42.626;23.380;2023-04-06T08:38:15;93778.38;;;5.10;93.87
11077;BME280;5591;42.626;23.380;2023-04-06T08:40:42;93782.50;;;4.72;92.89
11077;BME280;5591;42.626;23.380;2023-04-06T08:43:14;93781.84;;;5.41;92.92
11077;BME280;5591;42.626;23.380;2023-04-06T08:45:43;93776.03;;;5.39;89.60
11077;BME280;5591;42.626;23.380;2023-04-06T08:48:11;93787.66;;;5.12;88.41
11077;BME280;5591;42.626;23.380;2023-04-06T08:50:40;93783.09;;;5.14;88.79
11077;BME280;5591;42.626;23.380;2023-04-06T08:53:07;93783.97;;;4.83;89.00
11077;BME280;5591;42.626;23.380;2023-04-06T08:55:35;93781.53;;;4.81;87.77
11077;BME280;5591;42.626;23.380;2023-04-06T08:58:03;93787.22;;;4.85;86.08
11077;BME280;5591;42.626;23.380;2023-04-06T09:00:30;93769.63;;;5.11;86.73
11077;BME280;5591;42.626;23.380;2023-04-06T09:02:58;93758.66;;;4.69;89.58
11077;BME280;5591;42.626;23.380;2023-04-06T09:05:25;93773.38;;;5.00;88.79
11077;BME280;5591;42.626;23.380;2023-04-06T09:07:54;93773.03;;;5.11;87.81
11077;BME280;5591;42.626;23.380;2023-04-06T09:10:21;93778.47;;;5.40;87.59
11077;BME280;5591;42.626;23.380;2023-04-06T09:12:50;93781.47;;;5.13;86.90
11077;BME280;5591;42.626;23.380;2023-04-06T09:15:18;93736.91;;;4.62;88.56
11077;BME280;5591;42.626;23.380;2023-04-06T09:17:46;93770.84;;;5.31;87.39
11077;BME280;5591;42.626;23.380;2023-04-06T09:20:13;93769.94;;;5.00;87.02
11077;BME280;5591;42.626;23.380;2023-04-06T09:22:40;93758.16;;;5.36;86.68
11077;BME280;5591;42.626;23.380;2023-04-06T09:25:09;93765.78;;;5.37;87.16
11077;BME280;5591;42.626;23.380;2023-04-06T09:27:37;93758.50;;;5.33;85.31
11077;BME280;5591;42.626;23.380;2023-04-06T09:30:06;93760.41;;;5.69;85.64
11077;BME280;5591;42.626;23.380;2023-04-06T09:32:45;93763.84;;;6.00;82.50
11077;BME280;5591;42.626;23.380;2023-04-06T09:35:12;93813.84;;;6.26;80.71
11077;BME280;5591;42.626;23.380;2023-04-06T09:37:39;93774.03;;;5.49;81.63
11077;BME280;5591;42.626;23.380;2023-04-06T09:40:10;93713.59;;;5.39;81.46
11077;BME280;5591;42.626;23.380;2023-04-06T09:42:41;93757.25;;;5.90;81.75
11077;BME280;5591;42.626;23.380;2023-04-06T09:45:08;93754.56;;;5.67;82.69
11077;BME280;5591;42.626;23.380;2023-04-06T09:47:36;93754.69;;;5.82;81.10
11077;BME280;5591;42.626;23.380;2023-04-06T09:50:07;93769.94;;;6.38;77.53
11077;BME280;5591;42.626;23.380;2023-04-06T09:52:39;93719.94;;;6.20;77.46
11077;BME280;5591;42.626;23.380;2023-04-06T09:55:09;93776.00;;;5.85;78.80
11077;BME280;5591;42.626;23.380;2023-04-06T09:57:44;93761.16;;;6.16;78.10
11077;BME280;5591;42.626;23.380;2023-04-06T10:00:14;93781.09;;;5.32;78.31
11077;BME280;5591;42.626;23.380;2023-04-06T10:02:50;93757.31;;;5.82;79.94
11077;BME280;5591;42.626;23.380;2023-04-06T10:05:22;93758.44;;;6.10;77.85
11077;BME280;5591;42.626;23.380;2023-04-06T10:07:50;93751.09;;;6.13;77.85
11077;BME280;5591;42.626;23.380;2023-04-06T10:10:21;93766.88;;;6.12;76.69
11077;BME280;5591;42.626;23.380;2023-04-06T10:12:48;93757.09;;;6.14;74.87
11077;BME280;5591;42.626;23.380;2023-04-06T10:15:15;93746.09;;;6.04;76.64
11077;BME280;5591;42.626;23.380;2023-04-06T10:17:43;93765.28;;;6.11;75.64
11077;BME280;5591;42.626;23.380;2023-04-06T10:20:14;93758.41;;;6.18;73.66
11077;BME280;5591;42.626;23.380;2023-04-06T10:22:45;93740.34;;;6.53;73.38
11077;BME280;5591;42.626;23.380;2023-04-06T10:25:27;93779.50;;;6.23;74.56
11077;BME280;5591;42.626;23.380;2023-04-06T10:28:01;93734.69;;;6.50;73.83
11077;BME280;5591;42.626;23.380;2023-04-06T10:30:28;93738.44;;;6.84;72.76
11077;BME280;5591;42.626;23.380;2023-04-06T10:32:56;93712.81;;;7.31;71.32
11077;BME280;5591;42.626;23.380;2023-04-06T10:35:23;93719.09;;;6.93;70.07
11077;BME280;5591;42.626;23.380;2023-04-06T10:37:52;93731.06;;;6.36;72.13
11077;BME280;5591;42.626;23.380;2023-04-06T10:40:23;93658.38;;;5.82;72.17
11077;BME280;5591;42.626;23.380;2023-04-06T10:42:53;93742.06;;;6.24;71.90
11077;BME280;5591;42.626;23.380;2023-04-06T10:45:22;93748.00;;;6.32;71.58
11077;BME280;5591;42.626;23.380;2023-04-06T10:47:49;93746.94;;;6.64;71.18
11077;BME280;5591;42.626;23.380;2023-04-06T10:50:18;93738.94;;;6.28;71.77
11077;BME280;5591;42.626;23.380;2023-04-06T10:52:46;93743.50;;;6.26;72.46
11077;BME280;5591;42.626;23.380;2023-04-06T10:55:14;93719.50;;;6.53;71.40
11077;BME280;5591;42.626;23.380;2023-04-06T10:57:41;93744.22;;;7.87;67.96
11077;BME280;5591;42.626;23.380;2023-04-06T11:00:12;93729.94;;;7.69;66.42
11077;BME280;5591;42.626;23.380;2023-04-06T11:02:39;93767.50;;;7.53;66.00
11077;BME280;5591;42.626;23.380;2023-04-06T11:05:07;93769.25;;;6.81;68.13
11077;BME280;5591;42.626;23.380;2023-04-06T11:07:34;93738.78;;;7.68;67.83
11077;BME280;5591;42.626;23.380;2023-04-06T11:10:01;93767.19;;;7.42;65.97
11077;BME280;5591;42.626;23.380;2023-04-06T11:12:28;93734.22;;;6.98;66.02
11077;BME280;5591;42.626;23.380;2023-04-06T11:14:57;93747.19;;;7.20;67.24
11077;BME280;5591;42.626;23.380;2023-04-06T11:17:31;93754.13;;;7.28;66.91
11077;BME280;5591;42.626;23.380;2023-04-06T11:19:59;93743.22;;;7.38;66.82
11077;BME280;5591;42.626;23.380;2023-04-06T11:22:26;93761.78;;;7.15;66.42
11077;BME280;5591;42.626;23.380;2023-04-06T11:24:53;93744.16;;;7.31;66.13
11077;BME280;5591;42.626;23.380;2023-04-06T11:27:20;93737.38;;;7.08;67.16
11077;BME280;5591;42.626;23.380;2023-04-06T11:29:47;93735.56;;;7.37;66.11
11077;BME280;5591;42.626;23.380;2023-04-06T11:32:21;93717.97;;;7.25;65.25
11077;BME280;5591;42.626;23.380;2023-04-06T11:34:51;93741.06;;;7.28;64.99
11077;BME280;5591;42.626;23.380;2023-04-06T11:37:18;93728.81;;;7.28;65.71
11077;BME280;5591;42.626;23.380;2023-04-06T11:39:48;93737.38;;;7.22;66.95
11077;BME280;5591;42.626;23.380;2023-04-06T11:42:22;93723.66;;;7.63;65.76
11077;BME280;5591;42.626;23.380;2023-04-06T11:44:54;93689.41;;;7.37;63.60
11077;BME280;5591;42.626;23.380;2023-04-06T11:47:27;93701.94;;;7.77;64.81
11077;BME280;5591;42.626;23.380;2023-04-06T11:50:05;93727.09;;;7.99;63.64
11077;BME280;5591;42.626;23.380;2023-04-06T11:52:32;93719.41;;;8.12;63.44
11077;BME280;5591;42.626;23.380;2023-04-06T11:55:10;93722.03;;;7.62;62.92
11077;BME280;5591;42.626;23.380;2023-04-06T11:57:38;93728.09;;;7.48;63.79
11077;BME280;5591;42.626;23.380;2023-04-06T12:00:06;93737.25;;;7.59;63.91
11077;BME280;5591;42.626;23.380;2023-04-06T12:02:33;93733.84;;;6.86;64.88
11077;BME280;5591;42.626;23.380;2023-04-06T12:05:01;93720.59;;;6.59;67.34
11077;BME280;5591;42.626;23.380;2023-04-06T12:07:28;93726.69;;;7.03;66.51
11077;BME280;5591;42.626;23.380;2023-04-06T12:09:55;93724.16;;;7.09;65.59
11077;BME280;5591;42.626;23.380;2023-04-06T12:12:22;93672.34;;;6.63;65.86
11077;BME280;5591;42.626;23.380;2023-04-06T12:14:49;93741.59;;;6.94;66.18
11077;BME280;5591;42.626;23.380;2023-04-06T12:17:16;93741.66;;;6.72;67.13
11077;BME280;5591;42.626;23.380;2023-04-06T12:19:43;93725.41;;;6.99;66.55
11077;BME280;5591;42.626;23.380;2023-04-06T12:22:11;93647.06;;;6.92;65.60
11077;BME280;5591;42.626;23.380;2023-04-06T12:24:38;93723.59;;;7.57;64.38
11077;BME280;5591;42.626;23.380;2023-04-06T12:27:05;93726.41;;;7.27;64.95
11077;BME280;5591;42.626;23.380;2023-04-06T12:29:32;93726.44;;;6.61;68.44
11077;BME280;5591;42.626;23.380;2023-04-06T12:31:59;93721.44;;;7.31;68.01
11077;BME280;5591;42.626;23.380;2023-04-06T12:34:27;93731.44;;;7.42;66.12
11077;BME280;5591;42.626;23.380;2023-04-06T12:36:54;93720.91;;;7.36;66.59
11077;BME280;5591;42.626;23.380;2023-04-06T12:39:22;93717.47;;;7.50;65.78
11077;BME280;5591;42.626;23.380;2023-04-06T12:41:50;93712.03;;;7.66;65.92
11077;BME280;5591;42.626;23.380;2023-04-06T12:44:17;93714.53;;;7.24;65.77
11077;BME280;5591;42.626;23.380;2023-04-06T12:46:44;93718.75;;;7.25;65.86
11077;BME280;5591;42.626;23.380;2023-04-06T13:12:14;93699.31;;;6.99;67.30
11077;BME280;5591;42.626;23.380;2023-04-06T13:14:41;93700.59;;;7.03;66.56
11077;BME280;5591;42.626;23.380;2023-04-06T13:17:08;93698.47;;;7.91;63.79
11077;BME280;5591;42.626;23.380;2023-04-06T13:19:35;93702.88;;;7.91;63.64
11077;BME280;5591;42.626;23.380;2023-04-06T13:22:02;93661.19;;;7.12;66.06
11077;BME280;5591;42.626;23.380;2023-04-06T13:24:28;93697.50;;;7.78;65.08
11077;BME280;5591;42.626;23.380;2023-04-06T13:26:55;93686.47;;;7.97;63.63
11077;BME280;5591;42.626;23.380;2023-04-06T13:29:24;93686.06;;;7.29;64.87